Time;durP1;ratioP1;P1;durP2;ratioP2;P2;SDS_P1;SDS_P2;PMS_P1;PMS_P2;Temp;Humidity;BMP_temperature;BMP_pressure;BME280_temperature;BME280_humidity;BME280_pressure;Samples;Min_cycle;Max_cycle;Signal;HPM_P1;HPM_P2
2023/04/07 00:02:27;;;;;;;0.20;0.20;;;1.80;99.90;;;;;;5077507;28;20043;-79
2023/04/07 00:04:55;;;;;;;0.20;0.20;;;1.80;99.90;;;;;;5004100;28;1295569;-77
2023/04/07 00:07:21;;;;;;;0.10;0.10;;;0.40;99.90;;;;;;5072598;28;20654;-77
2023/04/07 00:09:46;;;;;;;0.10;0.10;;;1.70;99.90;;;;;;5072645;28;20048;-78
2023/04/07 00:12:12;;;;;;;0.20;0.20;;;1.80;99.90;;;;;;5072597;28;20074;-78
2023/04/07 00:14:39;;;;;;;0.10;0.10;;;1.80;99.90;;;;;;5069222;28;20525;-80
2023/04/07 00:17:05;;;;;;;0.20;0.20;;;1.70;99.90;;;;;;5074858;28;20078;-82
2023/04/07 00:19:32;;;;;;;0.20;0.20;;;1.80;99.90;;;;;;5076754;28;20028;-76
2023/04/07 00:21:58;;;;;;;0.20;0.20;;;1.80;99.90;;;;;;5074868;28;20021;-77
2023/04/07 00:24:24;;;;;;;0.20;0.20;;;1.80;99.90;;;;;;5058365;28;20015;-82
2023/04/07 00:26:50;;;;;;;0.20;0.20;;;1.80;99.90;;;;;;5076036;28;20056;-77
2023/04/07 00:29:15;;;;;;;0.20;0.20;;;1.80;99.90;;;;;;5079951;28;20021;-80
2023/04/07 00:31:41;;;;;;;0.20;0.20;;;1.80;99.90;;;;;;5063544;28;20040;-78
2023/04/07 00:34:07;;;;;;;0.10;0.10;;;1.90;99.90;;;;;;5065029;28;20510;-78
2023/04/07 00:36:32;;;;;;;0.10;0.10;;;1.90;99.90;;;;;;5085253;28;20051;-77
2023/04/07 00:38:58;;;;;;;0.20;0.20;;;1.90;99.90;;;;;;5081059;28;20049;-80
2023/04/07 00:41:24;;;;;;;0.20;0.20;;;1.80;99.90;;;;;;5076187;28;20033;-77
2023/04/07 00:43:51;;;;;;;0.20;0.20;;;1.80;99.90;;;;;;5061959;28;20021;-80
2023/04/07 00:46:20;;;;;;;0.20;0.20;;;1.80;99.90;;;;;;5057719;28;20021;-79
2023/04/07 00:48:46;;;;;;;0.10;0.10;;;1.80;99.90;;;;;;5073202;28;20099;-78
2023/04/07 00:51:12;;;;;;;0.20;0.20;;;1.80;99.90;;;;;;5071079;28;20096;-80
2023/04/07 00:53:38;;;;;;;0.10;0.10;;;1.90;99.90;;;;;;5028324;28;20029;-81
2023/04/07 00:56:04;;;;;;;0.20;0.20;;;2.00;99.90;;;;;;5030847;28;20033;-78
2023/04/07 00:58:30;;;;;;;0.13;0.13;;;1.90;99.90;;;;;;5030256;28;20022;-82
2023/04/07 01:01:15;;;;;;;2.45;2.35;;;2.70;99.90;;;;;;5032159;28;20032;-81
2023/04/07 01:03:57;;;;;;;0.20;0.20;;;2.00;99.90;;;;;;5031049;28;20025;-77
2023/04/07 01:06:26;;;;;;;0.20;0.20;;;2.00;99.90;;;;;;5033118;28;20048;-78
2023/04/07 01:09:03;;;;;;;0.15;0.15;;;2.10;99.90;;;;;;5014362;28;20083;-78
2023/04/07 01:11:47;;;;;;;0.17;0.17;;;2.00;99.90;;;;;;5035449;28;20040;-81
2023/04/07 01:14:16;;;;;;;0.20;0.20;;;2.00;99.90;;;;;;5037110;28;20065;-78
2023/04/07 01:16:49;;;;;;;0.20;0.20;;;2.00;99.90;;;;;;5036419;28;20040;-77
2023/04/07 01:19:42;;;;;;;0.68;0.68;;;2.00;99.90;;;;;;5019568;28;20026;-81
2023/04/07 01:22:16;;;;;;;0.20;0.20;;;2.00;99.90;;;;;;5051333;28;20033;-79
2023/04/07 01:24:41;;;;;;;;;;;2.10;99.90;;;;;;5052532;28;20024;-78
2023/04/07 01:27:20;;;;;;;0.17;0.17;;;2.10;99.90;;;;;;5050278;28;19910;-77
2023/04/07 01:29:49;;;;;;;0.20;0.20;;;2.10;99.90;;;;;;5051743;28;20048;-80
2023/04/07 01:32:17;;;;;;;0.20;0.20;;;2.10;99.90;;;;;;5067716;28;20105;-76
2023/04/07 01:34:44;;;;;;;0.20;0.20;;;2.10;99.90;;;;;;5070073;28;20048;-77
2023/04/07 01:37:10;;;;;;;0.20;0.20;;;2.10;99.90;;;;;;5070815;28;20032;-77
2023/04/07 01:39:38;;;;;;;0.10;0.10;;;3.60;99.90;;;;;;5055228;28;20040;-77
2023/04/07 01:42:05;;;;;;;0.20;0.20;;;2.10;99.90;;;;;;5040417;28;20016;-76
2023/04/07 01:44:32;;;;;;;0.10;0.10;;;2.10;99.90;;;;;;5024076;28;20040;-77
2023/04/07 01:46:59;;;;;;;0.25;0.25;;;2.10;99.90;;;;;;5023323;28;20028;-78
2023/04/07 01:49:27;;;;;;;0.20;0.20;;;2.00;99.90;;;;;;5005767;28;20048;-77
2023/04/07 01:51:54;;;;;;;0.20;0.20;;;2.00;99.90;;;;;;5005897;28;20083;-76
2023/04/07 01:54:20;;;;;;;2.47;2.38;;;2.00;99.90;;;;;;5009784;28;20088;-80
2023/04/07 01:56:46;;;;;;;0.20;0.20;;;2.00;99.90;;;;;;5032918;28;20018;-77
2023/04/07 01:59:12;;;;;;;0.20;0.20;;;2.00;99.90;;;;;;5032341;28;20017;-78
2023/04/07 02:01:38;;;;;;;17.23;16.33;;;2.10;99.90;;;;;;5032730;28;20032;-80
2023/04/07 02:04:30;;;;;;;0.20;0.20;;;2.10;99.90;;;;;;5014869;28;20028;-80
2023/04/07 02:07:03;;;;;;;0.20;0.20;;;2.10;99.90;;;;;;5030377;28;20041;-80
2023/04/07 02:09:32;;;;;;;0.20;0.20;;;2.10;99.90;;;;;;5031961;28;20236;-79
2023/04/07 02:12:00;;;;;;;0.20;0.20;;;2.10;99.90;;;;;;5033248;28;20021;-79
2023/04/07 02:14:27;;;;;;;0.20;0.20;;;2.10;99.90;;;;;;5032496;28;20057;-79
2023/04/07 02:16:55;;;;;;;0.20;0.20;;;2.10;99.90;;;;;;5030788;28;20214;-78
2023/04/07 02:19:21;;;;;;;3.15;3.05;;;2.10;99.90;;;;;;5029735;28;20028;-76
2023/04/07 02:21:50;;;;;;;0.10;0.10;;;0.20;99.90;;;;;;5032782;28;20013;-79
2023/04/07 02:24:22;;;;;;;0.20;0.20;;;2.20;99.90;;;;;;5027057;28;20682;-77
2023/04/07 02:26:48;;;;;;;0.20;0.20;;;2.20;99.90;;;;;;5009445;28;20030;-79
2023/04/07 02:29:14;;;;;;;0.20;0.20;;;2.20;99.90;;;;;;5033461;28;20024;-81
2023/04/07 02:31:49;;;;;;;0.20;0.20;;;2.20;99.90;;;;;;5034646;28;20034;-78
2023/04/07 02:34:15;;;;;;;0.20;0.20;;;2.20;99.90;;;;;;5037094;28;20029;-77
2023/04/07 02:36:41;;;;;;;0.20;0.20;;;;;;;;;;5033469;28;20049;-82
2023/04/07 02:39:08;;;;;;;0.20;0.20;;;2.20;99.90;;;;;;5039214;28;20030;-82
2023/04/07 02:41:33;;;;;;;0.20;0.20;;;2.20;99.90;;;;;;5032482;28;20040;-79
2023/04/07 02:43:59;;;;;;;0.20;0.20;;;2.20;99.90;;;;;;5055255;28;20080;-82
2023/04/07 02:46:25;;;;;;;0.20;0.20;;;2.20;99.90;;;;;;5074405;28;20028;-82
2023/04/07 02:48:51;;;;;;;0.20;0.20;;;2.20;99.90;;;;;;5067018;28;20036;-78
2023/04/07 02:51:16;;;;;;;0.40;0.40;;;2.30;99.90;;;;;;5066853;28;20024;-77
2023/04/07 02:53:42;;;;;;;0.20;0.20;;;2.30;99.90;;;;;;5066321;28;20019;-78
2023/04/07 02:56:10;;;;;;;0.20;0.20;;;2.30;99.90;;;;;;5065976;28;20115;-78
2023/04/07 02:58:36;;;;;;;0.20;0.20;;;2.30;99.90;;;;;;5065773;28;20020;-79
2023/04/07 03:01:02;;;;;;;0.10;0.10;;;2.30;99.90;;;;;;5047308;28;20570;-80
2023/04/07 03:03:27;;;;;;;0.20;0.20;;;2.30;99.90;;;;;;5066243;28;20142;-77
2023/04/07 03:05:53;;;;;;;0.55;0.55;;;2.30;99.90;;;;;;5068387;28;20062;-78
2023/04/07 03:08:19;;;;;;;0.40;0.40;;;2.30;99.90;;;;;;5065294;28;20025;-78
2023/04/07 03:10:45;;;;;;;0.20;0.20;;;2.30;99.90;;;;;;5069103;28;20059;-76
2023/04/07 03:13:15;;;;;;;0.20;0.20;;;2.30;99.90;;;;;;5066975;28;20024;-80
2023/04/07 03:15:42;;;;;;;0.13;0.13;;;2.20;99.90;;;;;;5066950;28;20578;-79
2023/04/07 03:18:08;;;;;;;2.60;2.50;;;2.20;99.90;;;;;;5064575;28;20009;-76
2023/04/07 03:20:34;;;;;;;0.20;0.20;;;2.20;99.90;;;;;;5046536;28;20174;-76
2023/04/07 03:23:00;;;;;;;0.17;0.17;;;2.20;99.90;;;;;;5063317;28;20028;-79
2023/04/07 03:25:26;;;;;;;0.20;0.20;;;2.20;99.90;;;;;;5062294;28;20028;-78
2023/04/07 03:27:52;;;;;;;1.65;1.65;;;2.10;99.90;;;;;;5061483;28;20016;-80
2023/04/07 03:30:17;;;;;;;0.20;0.20;;;2.10;99.90;;;;;;5062213;28;20051;-77
2023/04/07 03:32:43;;;;;;;0.15;0.15;;;2.10;99.90;;;;;;5064048;28;20032;-76
2023/04/07 03:35:09;;;;;;;0.20;0.20;;;2.10;99.90;;;;;;5064852;28;20036;-79
2023/04/07 03:37:35;;;;;;;2.80;2.70;;;2.10;99.90;;;;;;5065316;28;20643;-76
2023/04/07 03:40:01;;;;;;;1.73;1.73;;;2.10;99.90;;;;;;5062658;28;20021;-78
2023/04/07 03:42:27;;;;;;;0.20;0.20;;;;;;;;;;5062388;28;20028;-76
2023/04/07 03:44:53;;;;;;;0.13;0.13;;;2.10;99.90;;;;;;5065582;28;20017;-76
2023/04/07 03:47:18;;;;;;;2.00;1.90;;;2.10;99.90;;;;;;5067368;28;20547;-77
2023/04/07 03:49:44;;;;;;;0.15;0.15;;;2.10;99.90;;;;;;5067891;28;20271;-76
2023/04/07 03:52:10;;;;;;;0.10;0.10;;;2.10;99.90;;;;;;5068978;28;20099;-77
2023/04/07 03:54:36;;;;;;;0.20;0.20;;;2.10;99.90;;;;;;5069563;28;20020;-80
2023/04/07 03:57:02;;;;;;;6.63;6.32;;;2.00;99.90;;;;;;5070016;28;20042;-81
2023/04/07 03:59:27;;;;;;;0.60;0.60;;;2.00;99.90;;;;;;5070699;28;20047;-77
2023/04/07 04:01:54;;;;;;;14.30;13.60;;;2.00;99.90;;;;;;5069928;28;20028;-79
2023/04/07 04:04:20;;;;;;;9.07;8.68;;;2.00;99.90;;;;;;5070705;28;20031;-81
2023/04/07 04:06:46;;;;;;;0.20;0.20;;;1.90;99.90;;;;;;5051391;28;20044;-81
2023/04/07 04:09:13;;;;;;;7.13;6.82;;;1.90;99.90;;;;;;5071706;28;20021;-80
2023/04/07 04:11:44;;;;;;;4.13;4.03;;;2.00;99.90;;;;;;5073794;28;20126;-76
2023/04/07 04:14:11;;;;;;;0.20;0.20;;;;;;;;;;5046109;28;20688;-76
2023/04/07 04:16:36;;;;;;;25.38;23.63;;;2.00;99.90;;;;;;5041426;28;20691;-78
2023/04/07 04:19:02;;;;;;;0.38;0.38;;;2.00;99.90;;;;;;5012502;28;20032;-76
2023/04/07 04:21:28;;;;;;;22.33;20.58;;;2.00;99.90;;;;;;5045812;28;20613;-76
2023/04/07 04:23:54;;;;;;;27.35;26.20;;;;;;;;;;5047297;28;20053;-76
2023/04/07 04:26:24;;;;;;;0.20;0.20;;;2.00;99.90;;;;;;5046661;28;20049;-76
2023/04/07 04:28:50;;;;;;;3.67;3.53;;;1.80;99.90;;;;;;5046819;28;20019;-76
2023/04/07 04:31:16;;;;;;;0.63;0.63;;;1.90;99.90;;;;;;5046216;28;20066;-78
2023/04/07 04:33:42;;;;;;;0.68;0.68;;;1.90;99.90;;;;;;5045928;28;20016;-76
2023/04/07 04:36:08;;;;;;;0.10;0.10;;;2.90;99.90;;;;;;5047326;28;20055;-76
2023/04/07 04:38:33;;;;;;;3.13;2.90;;;1.90;99.90;;;;;;5049616;28;20032;-76
2023/04/07 04:41:00;;;;;;;2.72;2.63;;;2.00;99.90;;;;;;5052495;28;20021;-76
2023/04/07 04:43:26;;;;;;;0.20;0.20;;;2.00;99.90;;;;;;5053070;28;20081;-77
2023/04/07 04:45:52;;;;;;;1.95;1.85;;;2.00;99.90;;;;;;5052932;28;20100;-78
2023/04/07 04:48:18;;;;;;;0.10;0.10;;;2.10;99.90;;;;;;5059769;28;20044;-78
2023/04/07 04:50:43;;;;;;;0.20;0.20;;;1.80;99.90;;;;;;5056940;28;20615;-76
2023/04/07 04:53:09;;;;;;;0.13;0.13;;;2.10;99.90;;;;;;5054145;28;20595;-78
2023/04/07 04:55:35;;;;;;;0.20;0.20;;;2.00;99.90;;;;;;5054645;28;20125;-75
2023/04/07 04:58:01;;;;;;;0.40;0.40;;;;;;;;;;5050995;28;20100;-76
2023/04/07 05:00:27;;;;;;;0.20;0.20;;;2.20;99.90;;;;;;5027756;28;20543;-75
2023/04/07 05:02:54;;;;;;;0.20;0.20;;;2.20;99.90;;;;;;5049680;28;20028;-78
2023/04/07 05:05:20;;;;;;;0.10;0.10;;;;;;;;;;5037024;28;20083;-75
2023/04/07 05:07:46;;;;;;;0.20;0.20;;;2.20;99.90;;;;;;5053944;28;20537;-76
2023/04/07 05:10:12;;;;;;;0.28;0.28;;;2.30;99.90;;;;;;5048075;28;20032;-75
2023/04/07 05:12:37;;;;;;;1.23;1.23;;;2.30;99.90;;;;;;5045771;28;20016;-76
2023/04/07 05:15:04;;;;;;;5.68;5.38;;;2.40;99.90;;;;;;5045590;28;20044;-76
2023/04/07 05:17:29;;;;;;;0.20;0.20;;;2.40;99.90;;;;;;5043782;28;20033;-76
2023/04/07 05:19:55;;;;;;;0.20;0.20;;;2.50;99.90;;;;;;5046820;28;20682;-76
2023/04/07 05:22:21;;;;;;;2.83;2.63;;;2.50;99.90;;;;;;5048703;28;20013;-79
2023/04/07 05:24:47;;;;;;;0.20;0.20;;;2.50;99.90;;;;;;5035464;28;20032;-77
2023/04/07 05:27:12;;;;;;;0.13;0.13;;;2.60;99.90;;;;;;5053382;28;20036;-79
2023/04/07 05:29:38;;;;;;;0.10;0.10;;;2.60;99.90;;;;;;5053482;28;20025;-78
2023/04/07 05:32:05;;;;;;;0.10;0.10;;;2.60;99.90;;;;;;5055436;28;20041;-80
2023/04/07 05:34:30;;;;;;;0.20;0.20;;;2.70;99.90;;;;;;5056037;28;20024;-81
2023/04/07 05:36:56;;;;;;;0.22;0.22;;;2.70;99.90;;;;;;5053664;28;20074;-78
2023/04/07 05:39:23;;;;;;;0.10;0.10;;;;;;;;;;5048990;28;20341;-77
2023/04/07 05:41:48;;;;;;;0.17;0.17;;;2.80;99.90;;;;;;5028384;28;20496;-77
2023/04/07 05:44:14;;;;;;;0.10;0.10;;;2.90;99.90;;;;;;5028573;28;20322;-75
2023/04/07 05:46:40;;;;;;;2.47;2.38;;;3.00;99.90;;;;;;5046088;28;20028;-75
2023/04/07 05:49:06;;;;;;;0.20;0.20;;;3.00;99.90;;;;;;5028009;28;20033;-75
2023/04/07 05:51:32;;;;;;;0.10;0.10;;;3.10;99.90;;;;;;5044964;28;20454;-76
2023/04/07 05:54:02;;;;;;;0.10;0.10;;;3.10;99.90;;;;;;5046045;28;20087;-76
2023/04/07 05:56:28;;;;;;;0.22;0.22;;;3.20;99.90;;;;;;5045595;28;20025;-76
2023/04/07 05:58:53;;;;;;;0.10;0.10;;;3.30;99.90;;;;;;5045298;28;20036;-76
2023/04/07 06:01:20;;;;;;;0.10;0.10;;;3.30;99.90;;;;;;5044432;28;20074;-76
2023/04/07 06:03:45;;;;;;;0.20;0.20;;;3.30;99.90;;;;;;5044322;28;20036;-76
2023/04/07 06:06:11;;;;;;;0.10;0.10;;;3.30;99.90;;;;;;5043643;28;20692;-77
2023/04/07 06:08:38;;;;;;;0.20;0.20;;;3.30;99.90;;;;;;5045673;28;20191;-77
2023/04/07 06:11:04;;;;;;;0.73;0.50;;;;;;;;;;5046093;28;20021;-76
2023/04/07 06:13:30;;;;;;;0.10;0.10;;;3.30;99.90;;;;;;5027669;28;20554;-76
2023/04/07 06:15:56;;;;;;;0.10;0.10;;;3.30;99.90;;;;;;5044760;28;20032;-76
2023/04/07 06:18:22;;;;;;;0.22;0.22;;;3.40;99.90;;;;;;5045420;28;20028;-76
2023/04/07 06:20:48;;;;;;;1.30;1.30;;;3.40;99.90;;;;;;5045006;28;20559;-76
2023/04/07 06:23:14;;;;;;;0.20;0.20;;;3.50;99.90;;;;;;5044071;28;20029;-76
2023/04/07 06:25:39;;;;;;;0.15;0.15;;;3.60;99.90;;;;;;5045040;28;20029;-76
2023/04/07 06:28:05;;;;;;;0.10;0.10;;;3.70;99.90;;;;;;5045450;28;20680;-77
2023/04/07 06:30:31;;;;;;;0.10;0.10;;;2.60;99.90;;;;;;5046685;28;20711;-76
2023/04/07 06:32:57;;;;;;;0.10;0.10;;;4.00;99.90;;;;;;5028791;28;20021;-79
2023/04/07 06:35:25;;;;;;;0.35;0.35;;;4.10;99.90;;;;;;5044464;28;20033;-76
2023/04/07 06:37:51;;;;;;;0.20;0.20;;;;;;;;;;5044724;28;20104;-77
2023/04/07 06:40:17;;;;;;;0.10;0.10;;;4.30;99.90;;;;;;5044022;28;20063;-75
2023/04/07 06:42:44;;;;;;;0.10;0.10;;;4.60;99.90;;;;;;5045041;28;20013;-77
2023/04/07 06:45:10;;;;;;;0.10;0.10;;;4.60;99.90;;;;;;5045288;28;20036;-76
2023/04/07 06:47:37;;;;;;;0.10;0.10;;;4.70;99.90;;;;;;5048049;28;20511;-79
2023/04/07 06:50:03;;;;;;;0.10;0.10;;;4.90;99.90;;;;;;5048363;28;20021;-76
2023/04/07 06:52:28;;;;;;;4.78;4.35;;;4.90;99.90;;;;;;5045526;28;20659;-76
2023/04/07 06:54:54;;;;;;;0.10;0.10;;;5.00;99.90;;;;;;5044878;28;20068;-75
2023/04/07 06:57:20;;;;;;;0.20;0.20;;;5.00;99.90;;;;;;5025119;28;20102;-76
2023/04/07 06:59:46;;;;;;;0.08;0.08;;;5.10;99.90;;;;;;5046827;28;20044;-76
2023/04/07 07:02:12;;;;;;;0.43;0.43;;;5.20;99.90;;;;;;5029606;28;20021;-78
2023/04/07 07:04:37;;;;;;;0.00;0.00;;;5.20;99.90;;;;;;5045259;28;20040;-76
2023/04/07 07:07:06;;;;;;;0.10;0.10;;;5.10;99.90;;;;;;5046247;28;20036;-76
2023/04/07 07:09:31;;;;;;;0.10;0.10;;;5.10;99.90;;;;;;5048432;28;20456;-78
2023/04/07 07:11:57;;;;;;;0.10;0.10;;;5.30;99.90;;;;;;5049094;28;20730;-76
2023/04/07 07:14:23;;;;;;;2.85;2.75;;;5.40;99.90;;;;;;5053276;28;20040;-77
2023/04/07 07:16:50;;;;;;;0.10;0.10;;;5.60;99.90;;;;;;5046501;28;20029;-78
2023/04/07 07:19:16;;;;;;;0.00;0.00;;;5.70;99.90;;;;;;5045665;28;20025;-75
2023/04/07 07:21:42;;;;;;;0.10;0.10;;;5.80;99.90;;;;;;5030822;28;20051;-75
2023/04/07 07:24:08;;;;;;;0.10;0.10;;;5.90;99.90;;;;;;5049602;28;20045;-78
2023/04/07 07:26:34;;;;;;;0.10;0.10;;;6.00;99.90;;;;;;5054439;28;20435;-77
2023/04/07 07:29:00;;;;;;;1.35;1.35;;;;;;;;;;5050123;28;20053;-75
2023/04/07 07:31:26;;;;;;;0.10;0.10;;;6.20;99.90;;;;;;5028804;28;20127;-76
2023/04/07 07:33:52;;;;;;;0.65;0.65;;;6.20;99.90;;;;;;5047000;28;20075;-77
2023/04/07 07:36:17;;;;;;;0.00;0.00;;;6.20;99.90;;;;;;5049076;28;20039;-76
2023/04/07 07:38:43;;;;;;;0.10;0.10;;;6.30;99.90;;;;;;5048751;28;20098;-77
2023/04/07 07:41:09;;;;;;;0.10;0.10;;;6.50;99.90;;;;;;5054049;28;20025;-76
2023/04/07 07:43:38;;;;;;;0.00;0.00;;;8.20;99.90;;;;;;5052375;28;20025;-75
2023/04/07 07:46:04;;;;;;;0.10;0.10;;;6.70;99.90;;;;;;5047748;28;20708;-76
2023/04/07 07:48:30;;;;;;;0.98;0.98;;;6.90;99.90;;;;;;5046461;28;20025;-76
2023/04/07 07:50:56;;;;;;;0.00;0.00;;;7.00;97.80;;;;;;5044555;28;20020;-76
2023/04/07 07:53:25;;;;;;;2.28;2.17;;;7.10;99.10;;;;;;5048381;28;20033;-76
2023/04/07 07:55:54;;;;;;;0.00;0.00;;;7.10;99.70;;;;;;5048321;28;20048;-76
2023/04/07 07:58:20;;;;;;;0.10;0.10;;;7.30;99.40;;;;;;5025995;28;20021;-76
2023/04/07 08:00:46;;;;;;;0.00;0.00;;;7.20;98.90;;;;;;5045635;28;20032;-76
2023/04/07 08:03:12;;;;;;;0.00;0.00;;;7.30;99.90;;;;;;5044748;28;20073;-76
2023/04/07 08:05:37;;;;;;;9.18;8.88;;;7.40;99.40;;;;;;5044014;28;20063;-76
2023/04/07 08:08:03;;;;;;;0.00;0.00;;;7.30;97.20;;;;;;5043273;28;20017;-75
2023/04/07 08:10:29;;;;;;;0.10;0.10;;;6.90;95.90;;;;;;5043003;28;20029;-76
2023/04/07 08:12:55;;;;;;;0.00;0.00;;;6.90;95.70;;;;;;5043243;28;20028;-75
2023/04/07 08:15:21;;;;;;;0.10;0.10;;;6.80;96.40;;;;;;5046508;28;20544;-75
2023/04/07 08:17:48;;;;;;;0.10;0.10;;;6.90;97.50;;;;;;5046748;28;20067;-76
2023/04/07 08:20:13;;;;;;;0.10;0.10;;;6.70;97.80;;;;;;5047257;28;20032;-75
2023/04/07 08:22:40;;;;;;;0.00;0.00;;;6.80;98.10;;;;;;5047957;28;20495;-75
2023/04/07 08:25:06;;;;;;;0.00;0.00;;;6.80;98.40;;;;;;5048411;28;20047;-76
2023/04/07 08:27:31;;;;;;;0.10;0.10;;;6.80;99.00;;;;;;5052674;28;20025;-77
2023/04/07 08:29:59;;;;;;;0.10;0.10;;;6.50;98.90;;;;;;5054612;28;20021;-78
2023/04/07 08:32:32;;;;;;;0.00;0.00;;;6.90;98.30;;;;;;5053467;28;20030;-76
2023/04/07 08:34:58;;;;;;;0.00;0.00;;;6.90;96.00;;;;;;5029666;28;20726;-76
2023/04/07 08:37:24;;;;;;;0.00;0.00;;;6.90;97.10;;;;;;5047152;28;20354;-77
2023/04/07 08:39:50;;;;;;;4.80;4.47;;;7.00;96.70;;;;;;5053039;28;20017;-78
2023/04/07 08:42:17;;;;;;;0.10;0.10;;;7.00;96.00;;;;;;5054282;28;20044;-76
2023/04/07 08:44:44;;;;;;;9.30;4.00;;;7.10;96.40;;;;;;5052631;28;20100;-78
2023/04/07 08:47:12;;;;;;;0.10;0.10;;;7.10;93.10;;;;;;5049220;28;20009;-76
2023/04/07 08:49:40;;;;;;;0.00;0.00;;;7.10;92.30;;;;;;5051111;28;20014;-76
2023/04/07 08:52:06;;;;;;;0.10;0.10;;;;;;;;;;5057525;28;20025;-75
2023/04/07 08:54:32;;;;;;;0.03;0.03;;;7.30;91.20;;;;;;5057253;28;20092;-76
2023/04/07 08:57:00;;;;;;;0.10;0.10;;;7.40;87.30;;;;;;5038271;28;20033;-77
2023/04/07 08:59:28;;;;;;;0.35;0.35;;;7.30;87.50;;;;;;5040999;28;20032;-77
2023/04/07 09:01:55;;;;;;;0.00;0.00;;;7.40;89.60;;;;;;5037622;28;20032;-78
2023/04/07 09:04:23;;;;;;;0.00;0.00;;;6.70;89.00;;;;;;5053442;28;20035;-77
2023/04/07 09:06:49;;;;;;;0.00;0.00;;;7.70;86.20;;;;;;5035139;28;20040;-77
2023/04/07 09:09:15;;;;;;;0.00;0.00;;;7.80;86.80;;;;;;5074037;28;20066;-77
2023/04/07 09:11:42;;;;;;;0.10;0.10;;;7.90;84.90;;;;;;5078874;28;20029;-76
2023/04/07 09:14:09;;;;;;;0.00;0.00;;;8.10;84.40;;;;;;5072665;28;20012;-78
2023/04/07 09:16:35;;;;;;;0.00;0.00;;;8.10;83.00;;;;;;5069904;28;20101;-76
2023/04/07 09:19:01;;;;;;;0.00;0.00;;;8.10;83.70;;;;;;5070227;28;20426;-77
2023/04/07 09:22:05;;;;;;;0.30;0.30;;;8.20;83.40;;;;;;5066275;28;20154;-82
2023/04/07 09:24:36;;;;;;;0.00;0.00;;;8.30;86.30;;;;;;4960379;28;20094;-79
2023/04/07 09:27:13;;;;;;;0.10;0.10;;;8.50;84.50;;;;;;4927949;29;20081;-79
2023/04/07 09:29:43;;;;;;;0.13;0.13;;;6.10;82.70;;;;;;4928837;28;20078;-78
2023/04/07 09:32:37;;;;;;;0.00;0.00;;;8.60;77.60;;;;;;4952728;28;20085;-80
2023/04/07 09:35:04;;;;;;;0.05;0.05;;;8.60;79.50;;;;;;4947732;28;20031;-79
2023/04/07 09:38:53;;;;;;;0.10;0.10;;;8.70;77.60;;;;;;4966119;28;20065;-79
2023/04/07 09:41:16;;;;;;;0.03;0.03;;;;;;;;;;4946134;29;20042;-78
2023/04/07 09:43:55;;;;;;;0.10;0.10;;;8.60;76.40;;;;;;4930269;29;20097;-78
2023/04/07 09:46:26;;;;;;;0.10;0.10;;;8.20;77.00;;;;;;4931827;29;20075;-79
2023/04/07 09:49:06;;;;;;;0.95;0.95;;;8.60;75.70;;;;;;4934655;29;20074;-78
2023/04/07 09:51:55;;;;;;;0.10;0.10;;;8.60;76.30;;;;;;4924931;29;20048;-78
2023/04/07 09:54:41;;;;;;;0.10;0.10;;;8.90;77.30;;;;;;4909507;29;20036;-78
2023/04/07 09:57:09;;;;;;;0.03;0.03;;;8.70;77.00;;;;;;4924452;29;20100;-76
2023/04/07 09:59:43;;;;;;;0.25;0.25;;;8.60;77.80;;;;;;4958829;28;20779;-76
2023/04/07 10:02:10;;;;;;;0.10;0.10;;;8.50;76.60;;;;;;4960842;28;20070;-77
2023/04/07 10:04:36;;;;;;;0.00;0.00;;;8.30;76.60;;;;;;4946215;28;20039;-77
2023/04/07 10:07:05;;;;;;;0.00;0.00;;;8.40;76.60;;;;;;4961981;28;20051;-78
2023/04/07 10:09:32;;;;;;;0.10;0.10;;;8.20;80.70;;;;;;4962628;28;20052;-79
2023/04/07 10:11:58;;;;;;;0.20;0.20;;;8.00;77.80;;;;;;4954722;28;20098;-77
2023/04/07 10:14:27;;;;;;;0.10;0.10;;;8.00;79.30;;;;;;4950033;28;20090;-78
2023/04/07 10:16:54;;;;;;;0.00;0.00;;;8.00;79.60;;;;;;5023659;28;20151;-78
2023/04/07 10:19:36;;;;;;;0.10;0.10;;;8.20;79.10;;;;;;5009050;28;20026;-78
2023/04/07 10:22:04;;;;;;;0.10;0.10;;;8.30;78.70;;;;;;5015624;28;20009;-77
2023/04/07 10:24:55;;;;;;;11.98;5.68;;;8.50;80.00;;;;;;5025837;28;20031;-79
2023/04/07 10:27:37;;;;;;;0.00;0.00;;;8.30;80.60;;;;;;5025702;28;20095;-78
2023/04/07 10:30:14;;;;;;;0.10;0.10;;;8.70;78.80;;;;;;5028452;28;20028;-79
2023/04/07 10:32:50;;;;;;;1.98;1.95;;;8.50;78.50;;;;;;5027871;28;20183;-76
2023/04/07 10:35:20;;;;;;;0.20;0.20;;;8.70;75.80;;;;;;5031307;28;20045;-78
2023/04/07 10:38:09;;;;;;;0.10;0.10;;;8.70;76.80;;;;;;5031227;28;20096;-79
2023/04/07 10:40:42;;;;;;;0.10;0.10;;;8.90;74.30;;;;;;5032611;28;20254;-78
2023/04/07 10:43:49;;;;;;;4.22;4.13;;;8.90;74.00;;;;;;5052980;28;20021;-79
2023/04/07 10:46:17;;;;;;;0.00;0.00;;;;;;;;;;5056903;28;20032;-77
2023/04/07 10:49:09;;;;;;;0.00;0.00;;;9.00;71.60;;;;;;5035367;28;20024;-78
2023/04/07 10:51:38;;;;;;;0.00;0.00;;;9.10;73.10;;;;;;5051211;28;20027;-77
2023/04/07 10:54:21;;;;;;;0.00;0.00;;;5.90;73.10;;;;;;5053290;28;20032;-78
2023/04/07 10:57:15;;;;;;;0.32;0.32;;;9.50;72.20;;;;;;5048840;28;20067;-78
2023/04/07 11:00:15;;;;;;;0.10;0.10;;;9.60;70.70;;;;;;5050250;28;20020;-78
2023/04/07 11:02:43;;;;;;;0.10;0.10;;;9.70;70.20;;;;;;5057688;28;20020;-77
2023/04/07 11:05:20;;;;;;;0.10;0.10;;;9.70;70.40;;;;;;5074003;28;20040;-78
2023/04/07 11:08:01;;;;;;;10.57;9.98;;;9.70;70.00;;;;;;5058491;28;20121;-78
2023/04/07 11:10:35;;;;;;;0.10;0.10;;;9.80;71.40;;;;;;5061429;28;20020;-78
2023/04/07 11:13:07;;;;;;;0.73;0.73;;;10.20;70.10;;;;;;5053627;28;20016;-78
2023/04/07 11:15:41;;;;;;;9.80;9.10;;;9.90;69.00;;;;;;5067057;28;20475;-79
2023/04/07 11:18:17;;;;;;;0.05;0.05;;;9.90;69.50;;;;;;5051871;28;20078;-79
2023/04/07 11:21:06;;;;;;;0.10;0.10;;;10.00;68.60;;;;;;5048101;28;20023;-79
2023/04/07 11:23:40;;;;;;;0.10;0.10;;;10.20;69.00;;;;;;5048825;28;20024;-78
2023/04/07 11:26:10;;;;;;;2.22;2.13;;;10.50;69.90;;;;;;5049232;28;20115;-78
2023/04/07 11:28:52;;;;;;;0.10;0.10;;;10.50;67.40;;;;;;5056191;28;20033;-78
2023/04/07 11:31:34;;;;;;;0.22;0.22;;;9.50;65.90;;;;;;5064969;28;20028;-78
2023/04/07 11:34:13;;;;;;;0.10;0.10;;;10.60;66.90;;;;;;5046447;28;20093;-78
2023/04/07 11:36:40;;;;;;;0.10;0.10;;;10.80;66.90;;;;;;5046558;28;20709;-78
2023/04/07 11:39:29;;;;;;;0.70;0.70;;;10.80;68.10;;;;;;5066304;28;20060;-79
2023/04/07 11:42:00;;;;;;;0.20;0.20;;;11.00;67.50;;;;;;5045933;28;20028;-78
2023/04/07 11:44:28;;;;;;;9.77;9.35;;;11.20;65.00;;;;;;5064405;28;20100;-78
2023/04/07 11:47:06;;;;;;;3.28;3.17;;;11.50;65.30;;;;;;5046572;28;20392;-78
2023/04/07 11:49:43;;;;;;;0.10;0.10;;;11.10;63.20;;;;;;5053112;28;20078;-78
2023/04/07 11:52:11;;;;;;;0.10;0.10;;;10.80;64.80;;;;;;5052736;28;20021;-78
2023/04/07 11:55:01;;;;;;;0.10;0.10;;;10.80;66.20;;;;;;5051931;28;20490;-78
2023/04/07 11:57:28;;;;;;;0.20;0.20;;;10.80;65.00;;;;;;5067158;28;20577;-78
2023/04/07 12:00:13;;;;;;;0.10;0.10;;;10.90;66.00;;;;;;5050666;28;20144;-78
2023/04/07 12:02:39;;;;;;;0.10;0.10;;;11.00;66.60;;;;;;5069637;28;20028;-78
2023/04/07 12:05:06;;;;;;;0.17;0.17;;;11.00;65.80;;;;;;5070580;28;20051;-79
2023/04/07 12:07:32;;;;;;;0.10;0.10;;;11.00;65.40;;;;;;5060225;28;20024;-78
2023/04/07 12:10:17;;;;;;;0.17;0.17;;;11.10;68.30;;;;;;5074335;28;20031;-88
2023/04/07 12:12:45;;;;;;;0.20;0.20;;;9.30;65.20;;;;;;5026509;28;20703;-78
2023/04/07 12:15:13;;;;;;;0.10;0.10;;;11.50;66.70;;;;;;5005295;28;20048;-79
2023/04/07 12:17:47;;;;;;;3.78;3.50;;;11.70;66.60;;;;;;5004870;28;20500;-76
2023/04/07 12:20:15;;;;;;;0.10;0.10;;;12.10;65.00;;;;;;5022594;28;20119;-77
2023/04/07 12:22:41;;;;;;;7.28;6.72;;;12.80;62.50;;;;;;5022112;28;20018;-79
2023/04/07 12:25:07;;;;;;;0.30;0.30;;;12.40;61.60;;;;;;5021739;28;20025;-79
2023/04/07 12:27:33;;;;;;;0.20;0.20;;;12.50;60.90;;;;;;5022503;28;20029;-78
2023/04/07 12:30:00;;;;;;;0.20;0.20;;;;;;;;;;5004493;28;20029;-76
2023/04/07 12:32:27;;;;;;;0.40;0.40;;;12.70;59.50;;;;;;5005150;28;20691;-79
2023/04/07 12:34:56;;;;;;;0.55;0.55;;;12.70;61.10;;;;;;5004183;28;20038;-79
2023/04/07 12:37:22;;;;;;;0.10;0.10;;;12.90;62.20;;;;;;5004465;28;20026;-78
2023/04/07 12:39:48;;;;;;;0.10;0.10;;;12.90;59.80;;;;;;5022791;28;20025;-79
2023/04/07 12:42:19;;;;;;;0.10;0.10;;;12.70;59.20;;;;;;5028069;28;20021;-78
2023/04/07 12:44:45;;;;;;;0.77;0.77;;;12.40;59.90;;;;;;5023993;28;20117;-80
2023/04/07 12:47:11;;;;;;;0.30;0.30;;;12.50;60.10;;;;;;5023895;28;20116;-79
2023/04/07 12:49:39;;;;;;;0.50;0.50;;;12.60;60.10;;;;;;5024375;28;20035;-79
2023/04/07 12:52:05;;;;;;;0.20;0.20;;;12.40;62.00;;;;;;5042407;28;20028;-77
2023/04/07 12:54:32;;;;;;;0.22;0.22;;;12.40;60.90;;;;;;5041741;28;20583;-78
2023/04/07 12:56:58;;;;;;;0.20;0.20;;;12.60;59.50;;;;;;5041975;28;20108;-78
2023/04/07 12:59:25;;;;;;;0.57;0.57;;;12.10;58.80;;;;;;5041676;28;20108;-81
2023/04/07 13:01:51;;;;;;;0.82;0.82;;;12.70;59.00;;;;;;5024096;28;20630;-79
2023/04/07 13:04:17;;;;;;;0.30;0.30;;;12.80;59.50;;;;;;5024348;28;20013;-88
2023/04/07 13:06:46;;;;;;;0.20;0.20;;;13.00;61.30;;;;;;5042039;28;20491;-80
2023/04/07 13:09:14;;;;;;;0.17;0.17;;;12.80;61.10;;;;;;5025496;28;20045;-79
2023/04/07 13:11:45;;;;;;;0.13;0.13;;;13.30;58.90;;;;;;5025276;28;20321;-79